Time;durP1;ratioP1;P1;durP2;ratioP2;P2;SDS_P1;SDS_P2;PMS_P1;PMS_P2;Temp;Humidity;BMP_temperature;BMP_pressure;BME280_temperature;BME280_humidity;BME280_pressure;Samples;Min_cycle;Max_cycle;Signal;HPM_P1;HPM_P2
2022/04/19 03:02:05;;;;;;;9.93;9.13;;;2.90;99.90;;;;;;5182047;23;20245;-78
2022/04/19 03:04:31;;;;;;;9.70;8.90;;;2.80;99.90;;;;;;4941600;29;20217;-78
2022/04/19 03:06:57;;;;;;;9.67;8.97;;;2.80;99.90;;;;;;4940557;29;20233;-78
2022/04/19 03:09:23;;;;;;;13.40;12.50;;;2.80;99.90;;;;;;4939091;29;20281;-78
2022/04/19 03:11:49;;;;;;;11.20;10.40;;;2.70;99.90;;;;;;4937215;29;20213;-78
2022/04/19 03:14:16;;;;;;;11.23;10.37;;;2.60;99.90;;;;;;4946113;29;20210;-78
2022/04/19 03:16:42;;;;;;;12.83;11.90;;;2.70;99.90;;;;;;4958895;23;20241;-77
2022/04/19 03:19:08;;;;;;;12.50;11.53;;;2.60;99.90;;;;;;4940015;29;20186;-79
2022/04/19 03:21:34;;;;;;;10.33;9.67;;;2.60;99.90;;;;;;4937940;29;20190;-79
2022/04/19 03:29:30;;;;;;;9.70;8.80;;;2.60;99.90;;;;;;4918314;29;20195;-77
2022/04/19 03:31:56;;;;;;;10.90;10.30;;;2.50;99.90;;;;;;4930109;29;20599;-78
2022/04/19 03:34:22;;;;;;;31.07;29.17;;;2.60;99.90;;;;;;4938421;29;20178;-78
2022/04/19 03:36:48;;;;;;;12.00;11.20;;;2.60;99.90;;;;;;4938983;29;20237;-78
2022/04/19 03:39:14;;;;;;;10.70;10.10;;;2.60;99.90;;;;;;4944898;29;20186;-77
2022/04/19 03:41:40;;;;;;;11.93;11.00;;;2.60;99.90;;;;;;4933377;29;20198;-78
2022/04/19 03:44:07;;;;;;;12.63;11.73;;;2.60;99.90;;;;;;4919258;29;20191;-78
2022/04/19 03:47:07;;;;;;;14.33;13.33;;;2.60;99.90;;;;;;4918940;29;20239;-77
2022/04/19 03:49:19;;;;;;;19.83;18.63;;;2.60;99.90;;;;;;4920835;29;20197;-78
2022/04/19 03:51:45;;;;;;;20.03;18.60;;;2.60;99.90;;;;;;4929831;29;20265;-78
2022/04/19 03:54:11;;;;;;;20.80;19.50;;;2.60;99.90;;;;;;4938972;29;20194;-78
2022/04/19 03:56:37;;;;;;;24.83;23.37;;;2.60;99.90;;;;;;4935607;29;20218;-77
2022/04/19 03:59:02;;;;;;;14.60;13.80;;;2.70;99.90;;;;;;4922812;29;20187;-77
2022/04/19 04:01:28;;;;;;;11.93;11.17;;;2.70;99.90;;;;;;4943017;29;20186;-78
2022/04/19 04:03:54;;;;;;;13.63;12.67;;;2.60;99.90;;;;;;4923089;29;20183;-77
2022/04/19 04:06:20;;;;;;;11.60;10.80;;;2.60;99.90;;;;;;4924834;29;20205;-78
2022/04/19 04:08:46;;;;;;;13.17;12.20;;;2.60;99.90;;;;;;4927182;29;20183;-78
2022/04/19 04:11:12;;;;;;;12.03;11.27;;;2.60;99.90;;;;;;4925760;29;20538;-77
2022/04/19 04:13:38;;;;;;;9.87;9.27;;;2.60;99.90;;;;;;4936312;29;20190;-78
2022/04/19 04:16:04;;;;;;;11.13;10.40;;;2.60;99.90;;;;;;4951998;29;20241;-78
2022/04/19 04:18:31;;;;;;;15.73;14.83;;;2.60;99.90;;;;;;4935780;29;20201;-79
2022/04/19 04:20:57;;;;;;;17.97;16.87;;;2.60;99.90;;;;;;4932962;29;20186;-79
2022/04/19 04:23:22;;;;;;;15.20;14.03;;;2.60;99.90;;;;;;4916883;29;20187;-78
2022/04/19 04:25:48;;;;;;;15.27;14.30;;;2.60;99.90;;;;;;4918066;29;20258;-78
2022/04/19 04:28:14;;;;;;;14.70;13.77;;;2.60;99.90;;;;;;4915401;29;20186;-78
2022/04/19 04:30:40;;;;;;;13.80;13.00;;;2.60;99.90;;;;;;4918171;29;20570;-78
2022/04/19 04:33:05;;;;;;;16.77;15.77;;;2.60;99.90;;;;;;4936962;29;20210;-78
2022/04/19 04:35:34;;;;;;;16.40;15.27;;;2.70;99.90;;;;;;4937391;29;20234;-78
2022/04/19 04:38:00;;;;;;;26.97;25.30;;;2.70;99.90;;;;;;4941156;29;20187;-79
2022/04/19 04:40:26;;;;;;;21.30;20.07;;;2.70;99.90;;;;;;4945716;29;20178;-77
2022/04/19 04:42:51;;;;;;;15.80;14.90;;;2.80;99.90;;;;;;4928665;29;20183;-78
2022/04/19 04:45:17;;;;;;;19.30;18.13;;;2.80;99.90;;;;;;4931181;29;20203;-78
2022/04/19 04:50:27;;;;;;;25.13;23.53;;;2.80;99.90;;;;;;4931090;29;20182;-78
2022/04/19 04:52:53;;;;;;;10.50;9.73;;;2.90;99.90;;;;;;4940233;29;20186;-79
2022/04/19 04:55:19;;;;;;;11.07;10.07;;;3.10;99.90;;;;;;4960160;29;20273;-79
2022/04/19 04:57:45;;;;;;;11.73;10.83;;;3.10;99.90;;;;;;4942662;29;20242;-79
2022/04/19 05:00:11;;;;;;;10.83;10.13;;;3.20;99.90;;;;;;4929635;29;20187;-79
2022/04/19 05:02:37;;;;;;;10.00;9.40;;;3.30;99.90;;;;;;4919166;29;20190;-79
2022/04/19 05:05:03;;;;;;;12.70;11.73;;;3.30;99.90;;;;;;4917120;29;20190;-79
2022/04/19 05:07:29;;;;;;;10.70;9.17;;;3.50;99.90;;;;;;4915862;29;20206;-79
2022/04/19 05:10:00;;;;;;;11.10;10.10;;;3.70;99.90;;;;;;4922673;29;20282;-79
2022/04/19 05:12:26;;;;;;;23.90;22.33;;;3.80;99.90;;;;;;4936060;29;20202;-79
2022/04/19 05:14:52;;;;;;;8.07;7.37;;;4.10;99.90;;;;;;4943683;29;20182;-79
2022/04/19 05:17:18;;;;;;;10.47;9.77;;;4.40;99.90;;;;;;4941227;29;20249;-79
2022/04/19 05:19:43;;;;;;;11.13;10.47;;;5.00;99.90;;;;;;4946063;29;20179;-79
2022/04/19 05:22:09;;;;;;;11.67;10.87;;;5.60;99.90;;;;;;4917144;29;20234;-80
2022/04/19 05:24:35;;;;;;;11.67;10.57;;;6.00;99.90;;;;;;4918210;29;20310;-80
2022/04/19 05:27:01;;;;;;;13.77;12.47;;;6.40;99.90;;;;;;4915852;29;20226;-78
2022/04/19 05:29:26;;;;;;;20.17;18.53;;;6.80;99.90;;;;;;4920008;29;20186;-79
2022/04/19 05:31:52;;;;;;;17.87;16.00;;;7.30;99.90;;;;;;4936817;29;20194;-78
2022/04/19 05:34:18;;;;;;;18.47;17.03;;;7.70;99.90;;;;;;4935092;29;20711;-78
2022/04/19 05:36:44;;;;;;;9.40;8.80;;;8.20;99.90;;;;;;4934355;29;20608;-78
2022/04/19 05:39:09;;;;;;;12.50;11.70;;;8.70;99.90;;;;;;4952556;29;20210;-78
2022/04/19 05:41:39;;;;;;;13.90;13.10;;;8.90;99.90;;;;;;4917318;29;20659;-79
2022/04/19 05:44:06;;;;;;;8.90;8.27;;;9.10;99.90;;;;;;4916932;29;20270;-79
2022/04/19 05:46:32;;;;;;;7.33;6.90;;;9.20;99.90;;;;;;4922002;29;20302;-79
2022/04/19 05:48:58;;;;;;;8.53;7.83;;;9.50;99.90;;;;;;4922380;29;20187;-79
2022/04/19 05:51:24;;;;;;;6.83;6.43;;;9.80;99.90;;;;;;4941224;29;20190;-78
2022/04/19 05:53:49;;;;;;;7.87;7.30;;;10.10;99.90;;;;;;4962123;29;20189;-79
2022/04/19 05:56:15;;;;;;;7.87;7.03;;;10.40;99.90;;;;;;4941037;29;20329;-78
2022/04/19 05:58:41;;;;;;;11.83;8.37;;;10.60;99.90;;;;;;4955045;29;20190;-79
2022/04/19 06:01:07;;;;;;;10.57;9.77;;;10.90;99.90;;;;;;4939914;29;20187;-80
2022/04/19 06:06:18;;;;;;;13.77;12.90;;;11.10;99.90;;;;;;4920268;29;20214;-79
2022/04/19 06:08:44;;;;;;;8.83;8.07;;;11.30;99.90;;;;;;4920053;29;20184;-78
2022/04/19 06:11:12;;;;;;;10.97;6.30;;;11.20;99.90;;;;;;4936717;29;20265;-78
2022/04/19 06:13:40;;;;;;;7.23;6.00;;;11.50;99.90;;;;;;4956346;29;20194;-78
2022/04/19 06:16:06;;;;;;;8.87;6.67;;;11.50;99.90;;;;;;4950017;29;20690;-79
2022/04/19 06:18:33;;;;;;;6.47;5.97;;;11.80;99.90;;;;;;4964255;29;20182;-79
2022/04/19 06:20:59;;;;;;;5.90;5.50;;;12.20;99.90;;;;;;4947072;28;20178;-79
2022/04/19 06:23:26;;;;;;;6.53;6.13;;;12.10;99.90;;;;;;4941498;29;20192;-79
2022/04/19 06:25:52;;;;;;;6.50;6.00;;;11.70;99.90;;;;;;4931140;29;20211;-79
2022/04/19 06:28:17;;;;;;;6.50;6.13;;;11.90;99.90;;;;;;4921060;29;20243;-81
2022/04/19 06:30:43;;;;;;;7.47;6.97;;;12.10;99.90;;;;;;4929461;29;20198;-76
2022/04/19 06:33:09;;;;;;;7.47;6.93;;;12.40;99.90;;;;;;4936133;29;20186;-75
2022/04/19 06:35:35;;;;;;;8.47;7.20;;;12.90;99.90;;;;;;4935530;29;20210;-75
2022/04/19 06:38:02;;;;;;;7.57;6.30;;;13.20;99.80;;;;;;4935952;29;20209;-75
2022/04/19 06:40:27;;;;;;;6.17;5.67;;;13.60;97.80;;;;;;4926259;29;20659;-75
2022/04/19 06:42:57;;;;;;;6.33;5.83;;;13.70;96.90;;;;;;4916683;29;20207;-74
2022/04/19 06:45:23;;;;;;;7.87;7.27;;;13.80;95.10;;;;;;4898373;29;20295;-73
2022/04/19 06:48:01;;;;;;;7.40;6.87;;;14.10;95.40;;;;;;4897847;29;20210;-73
2022/04/19 06:50:27;;;;;;;8.53;7.70;;;14.40;93.70;;;;;;4906571;29;20193;-74
2022/04/19 06:52:53;;;;;;;9.33;8.50;;;14.40;93.40;;;;;;4915501;29;20187;-75
2022/04/19 06:55:20;;;;;;;7.00;6.40;;;14.70;92.70;;;;;;4915752;29;20211;-74
2022/04/19 06:57:49;;;;;;;6.70;6.10;;;15.00;91.20;;;;;;4914807;29;20207;-75
2022/04/19 07:00:16;;;;;;;7.23;6.73;;;15.30;90.70;;;;;;4921076;29;20681;-74
2022/04/19 07:02:44;;;;;;;7.60;7.03;;;15.50;89.30;;;;;;4933805;29;20174;-73
2022/04/19 07:05:11;;;;;;;8.60;7.10;;;15.10;88.90;;;;;;4951189;29;20269;-75
2022/04/19 07:07:42;;;;;;;6.83;6.33;;;15.10;89.40;;;;;;4950391;29;20870;-74
2022/04/19 07:10:10;;;;;;;5.57;5.17;;;15.70;88.20;;;;;;4944334;29;20191;-74
2022/04/19 07:12:37;;;;;;;6.20;5.60;;;16.00;84.80;;;;;;4916440;29;20195;-74
2022/04/19 07:15:03;;;;;;;5.70;5.30;;;16.20;83.10;;;;;;4914702;29;20202;-73
2022/04/19 07:17:29;;;;;;;5.50;5.20;;;16.40;80.40;;;;;;4910920;29;20207;-74
2022/04/19 07:28:14;;;;;;;6.00;5.50;;;16.10;77.20;;;;;;4919860;29;20202;-76
2022/04/19 07:30:40;;;;;;;5.57;5.17;;;16.30;77.30;;;;;;4924869;29;20185;-77
2022/04/19 07:33:06;;;;;;;5.57;5.07;;;16.40;76.20;;;;;;4959292;28;20201;-78
2022/04/19 07:35:32;;;;;;;6.67;6.00;;;16.80;77.20;;;;;;4945752;28;20210;-77
2022/04/19 07:37:58;;;;;;;6.73;6.23;;;17.20;73.80;;;;;;4952365;29;20189;-78
2022/04/19 07:40:23;;;;;;;8.50;8.00;;;17.40;74.40;;;;;;4929352;29;20179;-77
2022/04/19 07:42:49;;;;;;;7.43;6.93;;;17.50;71.40;;;;;;4915884;29;20194;-77
2022/04/19 07:45:15;;;;;;;8.33;7.77;;;17.20;72.40;;;;;;4915936;29;20210;-77
2022/04/19 07:47:41;;;;;;;9.90;9.20;;;17.70;73.60;;;;;;4916273;29;20207;-76
2022/04/19 07:50:07;;;;;;;8.17;7.63;;;18.20;71.90;;;;;;4916881;29;20648;-75
2022/04/19 07:52:33;;;;;;;5.70;5.23;;;18.40;70.60;;;;;;4914328;29;20187;-77
2022/04/19 07:54:58;;;;;;;5.77;5.37;;;18.80;66.80;;;;;;4915883;29;20190;-78
2022/04/19 07:57:24;;;;;;;6.00;5.40;;;18.40;65.40;;;;;;4916660;29;20223;-78
2022/04/19 07:59:54;;;;;;;7.20;6.53;;;18.20;67.90;;;;;;4917180;29;20187;-75
2022/04/19 08:02:20;;;;;;;6.37;5.87;;;18.50;72.10;;;;;;4949006;29;20561;-76
2022/04/19 08:04:46;;;;;;;5.95;5.45;;;19.00;68.00;;;;;;4912149;29;20239;-75
2022/04/19 08:07:12;;;;;;;6.40;5.80;;;19.20;66.90;;;;;;4929181;29;20574;-76
2022/04/19 08:09:39;;;;;;;6.25;5.70;;;19.10;65.30;;;;;;4935661;29;20183;-76
2022/04/19 08:12:05;;;;;;;8.52;5.82;;;19.20;65.30;;;;;;4934641;29;20187;-75
2022/04/19 08:14:32;;;;;;;5.45;5.13;;;19.40;65.90;;;;;;4915453;29;20194;-75
2022/04/19 08:16:58;;;;;;;5.35;5.03;;;19.60;65.70;;;;;;4914889;29;20218;-75
2022/04/19 08:19:23;;;;;;;5.72;5.32;;;19.70;65.10;;;;;;4913629;29;20269;-74
2022/04/19 08:21:51;;;;;;;5.90;5.50;;;19.80;62.70;;;;;;4930629;29;20265;-73
2022/04/19 08:24:16;;;;;;;6.32;5.88;;;19.90;61.50;;;;;;4934461;29;20185;-74
2022/04/19 08:26:42;;;;;;;6.20;5.78;;;20.10;62.20;;;;;;4933838;29;20285;-73
2022/04/19 08:29:08;;;;;;;6.28;5.50;;;20.40;58.70;;;;;;4933761;29;20562;-74
2022/04/19 08:31:34;;;;;;;6.25;5.63;;;20.40;59.10;;;;;;4920161;29;20191;-77
2022/04/19 08:34:01;;;;;;;5.47;5.18;;;20.30;58.30;;;;;;4914787;29;20193;-73
2022/04/19 08:36:26;;;;;;;5.85;5.35;;;20.30;58.50;;;;;;4915054;29;20246;-74
2022/04/19 08:38:52;;;;;;;5.78;5.28;;;20.60;58.80;;;;;;4938300;29;20171;-75
2022/04/19 08:41:20;;;;;;;6.10;5.63;;;21.00;56.20;;;;;;4929117;29;20193;-74
2022/04/19 08:43:46;;;;;;;5.78;5.38;;;21.30;58.70;;;;;;4933547;29;20194;-73
2022/04/19 08:46:13;;;;;;;5.53;5.13;;;21.50;56.40;;;;;;4948537;29;20523;-73
2022/04/19 08:48:40;;;;;;;5.45;5.05;;;20.90;55.80;;;;;;4947725;29;20560;-72
2022/04/19 08:51:10;;;;;;;7.80;5.47;;;20.40;57.00;;;;;;4923903;29;20525;-73
2022/04/19 08:59:06;;;;;;;6.90;6.30;;;21.00;57.30;;;;;;4914238;29;20269;-73
2022/04/19 09:01:35;;;;;;;5.47;5.07;;;21.10;63.20;;;;;;4927943;29;20218;-73
2022/04/19 09:04:04;;;;;;;5.88;5.10;;;21.40;53.30;;;;;;4933271;29;20187;-73
2022/04/19 09:06:54;;;;;;;5.10;4.72;;;21.60;52.20;;;;;;4936068;29;20202;-74
2022/04/19 09:09:38;;;;;;;6.45;5.85;;;21.10;52.50;;;;;;4934562;29;20682;-73
2022/04/19 09:12:11;;;;;;;5.80;5.45;;;21.30;54.10;;;;;;4933054;29;20186;-73
2022/04/19 09:15:00;;;;;;;6.00;5.55;;;21.40;56.10;;;;;;4948382;29;20205;-73
2022/04/19 09:17:32;;;;;;;5.68;5.18;;;21.10;52.80;;;;;;4952476;23;20225;-72
2022/04/19 09:20:20;;;;;;;5.97;5.57;;;20.80;52.80;;;;;;4949725;28;20186;-73
2022/04/19 09:22:50;;;;;;;5.50;5.00;;;20.60;52.50;;;;;;4923411;29;20182;-74
2022/04/19 09:25:20;;;;;;;5.45;5.05;;;20.90;50.90;;;;;;4924302;29;20229;-73
2022/04/19 09:27:47;;;;;;;6.40;5.80;;;21.20;50.10;;;;;;4912071;29;20266;-74
2022/04/19 09:30:19;;;;;;;5.57;5.07;;;21.20;56.70;;;;;;4900670;29;20212;-74
2022/04/19 09:33:14;;;;;;;5.88;5.53;;;21.40;51.90;;;;;;4917946;29;20198;-75
2022/04/19 09:35:43;;;;;;;5.85;5.45;;;21.00;50.10;;;;;;4899487;29;20194;-73
2022/04/19 09:38:09;;;;;;;9.77;9.07;;;21.00;49.20;;;;;;4897569;29;20616;-73
2022/04/19 09:40:38;;;;;;;6.20;5.70;;;20.90;47.30;;;;;;4904484;29;20180;-73
2022/04/19 09:43:20;;;;;;;9.57;8.98;;;21.30;49.70;;;;;;4917960;29;20671;-74
2022/04/19 09:45:47;;;;;;;10.13;9.48;;;22.10;48.20;;;;;;4917922;29;20183;-74
2022/04/19 09:48:26;;;;;;;12.68;11.98;;;21.60;47.40;;;;;;4917277;29;20270;-74
2022/04/19 09:50:55;;;;;;;12.43;11.73;;;22.00;47.10;;;;;;4917608;29;20203;-74
2022/04/19 09:53:23;;;;;;;13.40;12.50;;;21.90;46.60;;;;;;4917671;29;20183;-74
2022/04/19 09:55:52;;;;;;;12.32;11.63;;;21.60;45.80;;;;;;4932052;29;20183;-76
2022/04/19 09:58:19;;;;;;;13.40;12.63;;;21.30;47.20;;;;;;4917129;29;20215;-75
2022/04/19 10:00:45;;;;;;;10.93;10.23;;;21.10;46.60;;;;;;4917260;29;20183;-75
2022/04/19 10:08:47;;;;;;;10.43;9.88;;;22.30;45.70;;;;;;4917180;29;20625;-74
2022/04/19 10:11:13;;;;;;;11.27;10.40;;;22.40;45.30;;;;;;4917129;29;20187;-74
2022/04/19 10:13:40;;;;;;;13.20;12.35;;;21.80;45.80;;;;;;4932393;29;20674;-75
2022/04/19 10:16:14;;;;;;;16.10;15.20;;;21.80;47.50;;;;;;4917149;29;20206;-74
2022/04/19 10:18:41;;;;;;;14.27;13.57;;;22.10;47.20;;;;;;4931611;29;20182;-75
2022/04/19 10:21:10;;;;;;;11.88;11.15;;;21.70;47.30;;;;;;4931649;29;20190;-75
2022/04/19 10:23:39;;;;;;;12.90;12.02;;;21.70;47.30;;;;;;4917127;29;20282;-75
2022/04/19 10:26:24;;;;;;;17.75;16.67;;;21.50;47.60;;;;;;4916983;29;20184;-75
2022/04/19 10:28:54;;;;;;;13.32;12.32;;;21.70;47.30;;;;;;4931434;29;20270;-74
2022/04/19 10:31:35;;;;;;;14.32;13.45;;;22.00;46.90;;;;;;4930520;29;20274;-74
2022/04/19 10:34:05;;;;;;;15.13;14.20;;;21.80;47.00;;;;;;4917250;29;20585;-74
2022/04/19 10:36:37;;;;;;;12.50;11.80;;;21.90;48.00;;;;;;4916896;29;20231;-74
2022/04/19 10:39:12;;;;;;;15.05;14.25;;;22.10;45.70;;;;;;4932382;29;20190;-74
2022/04/19 10:42:05;;;;;;;10.50;10.00;;;22.40;47.00;;;;;;4932925;29;20187;-73
2022/04/19 10:44:43;;;;;;;10.63;10.02;;;23.20;45.50;;;;;;4934797;29;20190;-74
2022/04/19 10:47:12;;;;;;;9.32;8.73;;;23.60;45.80;;;;;;4917787;29;20290;-74
2022/04/19 10:50:00;;;;;;;8.98;8.48;;;23.20;46.10;;;;;;4931696;29;20612;-74
2022/04/19 10:52:39;;;;;;;11.85;11.15;;;22.40;46.00;;;;;;4915302;29;20198;-74
2022/04/19 10:55:18;;;;;;;16.85;15.68;;;22.50;46.80;;;;;;4922506;29;20187;-74
2022/04/19 10:58:08;;;;;;;12.60;11.80;;;22.30;49.40;;;;;;4941218;29;20766;-74
2022/04/19 11:00:36;;;;;;;14.43;13.52;;;22.10;48.20;;;;;;4922203;29;20239;-74
2022/04/19 11:03:06;;;;;;;13.02;12.27;;;22.00;47.20;;;;;;4916890;29;20179;-74
2022/04/19 11:05:44;;;;;;;13.02;12.32;;;21.90;46.90;;;;;;4917031;29;20631;-76
2022/04/19 11:08:21;;;;;;;17.17;15.98;;;21.80;48.30;;;;;;4916490;29;20211;-75
2022/04/19 11:10:48;;;;;;;12.43;11.73;;;22.30;48.90;;;;;;4930763;29;20231;-74
2022/04/19 11:13:14;;;;;;;8.10;7.60;;;23.10;45.70;;;;;;4915564;29;20190;-74
2022/04/19 11:15:42;;;;;;;7.35;6.85;;;23.90;44.00;;;;;;4915536;29;20179;-75
2022/04/19 11:18:30;;;;;;;5.72;5.20;;;24.80;44.50;;;;;;4930927;29;20722;-74
2022/04/19 11:21:13;;;;;;;4.72;4.47;;;25.50;42.50;;;;;;4926404;29;20259;-74
2022/04/19 11:23:45;;;;;;;5.78;5.38;;;26.20;41.70;;;;;;4926828;29;20305;-73
2022/04/19 11:26:26;;;;;;;6.25;5.82;;;26.20;40.60;;;;;;4920032;29;20209;-74
2022/04/19 11:29:10;;;;;;;5.30;4.80;;;26.90;38.90;;;;;;4927332;29;20183;-74
2022/04/19 11:31:45;;;;;;;5.93;4.63;;;27.10;36.80;;;;;;4935227;29;20191;-75
2022/04/19 11:34:16;;;;;;;4.70;4.40;;;26.60;40.00;;;;;;4917451;29;20210;-74
2022/04/19 11:36:43;;;;;;;5.40;5.00;;;26.50;37.40;;;;;;4931583;29;20219;-75
2022/04/19 11:47:58;;;;;;;7.88;7.28;;;23.30;40.30;;;;;;4915859;29;20257;-74
2022/04/19 11:50:29;;;;;;;7.18;6.57;;;23.50;41.90;;;;;;4915444;29;20269;-74
2022/04/19 11:52:55;;;;;;;11.82;7.15;;;24.40;42.00;;;;;;4913158;29;20652;-74
2022/04/19 11:55:25;;;;;;;7.13;6.57;;;24.90;40.30;;;;;;4916123;29;20198;-74
2022/04/19 11:58:02;;;;;;;18.80;6.90;;;25.10;41.00;;;;;;4915013;29;20215;-74
2022/04/19 12:00:28;;;;;;;9.48;6.43;;;24.70;40.00;;;;;;4915358;29;20191;-74
2022/04/19 12:02:54;;;;;;;7.00;6.60;;;23.80;40.60;;;;;;4915745;29;20186;-74
2022/04/19 12:05:25;;;;;;;8.02;6.20;;;23.20;41.60;;;;;;4915570;29;20188;-75
2022/04/19 12:07:52;;;;;;;7.93;6.25;;;23.20;43.00;;;;;;4914949;29;20309;-76
2022/04/19 12:10:19;;;;;;;28.33;7.85;;;23.60;42.70;;;;;;4915938;29;20183;-75
2022/04/19 12:12:46;;;;;;;7.30;6.75;;;23.30;42.40;;;;;;4915350;29;20183;-76
2022/04/19 12:15:12;;;;;;;6.70;6.30;;;23.60;41.00;;;;;;4915592;29;20201;-75
2022/04/19 12:17:45;;;;;;;8.48;6.53;;;23.40;40.90;;;;;;4929895;29;20282;-75
2022/04/19 12:20:11;;;;;;;7.75;7.15;;;23.70;39.30;;;;;;4930582;29;20257;-75
2022/04/19 12:22:37;;;;;;;9.13;6.10;;;24.00;38.70;;;;;;4915312;29;20615;-75
2022/04/19 12:25:04;;;;;;;6.18;5.78;;;24.30;38.30;;;;;;4914745;29;20183;-76
2022/04/19 12:27:32;;;;;;;7.93;6.63;;;24.00;38.00;;;;;;4914974;29;20202;-75
2022/04/19 12:29:59;;;;;;;8.88;5.82;;;24.30;38.80;;;;;;4907374;29;20189;-74
2022/04/19 12:32:26;;;;;;;12.38;6.25;;;24.60;37.40;;;;;;4916161;29;20726;-74
2022/04/19 12:35:08;;;;;;;6.22;5.60;;;25.30;36.50;;;;;;4917993;29;20217;-76
2022/04/19 12:37:34;;;;;;;5.00;4.60;;;26.60;35.70;;;;;;4915542;29;20225;-75
2022/04/19 12:40:01;;;;;;;4.88;4.55;;;26.40;36.30;;;;;;4929543;29;20625;-76
2022/04/19 12:42:28;;;;;;;4.75;4.45;;;25.90;36.20;;;;;;4914682;29;20191;-75
2022/04/19 12:45:07;;;;;;;4.30;4.10;;;26.20;35.70;;;;;;4914013;29;20203;-72
2022/04/19 12:47:33;;;;;;;7.93;4.97;;;26.20;35.80;;;;;;4913114;29;20293;-75
2022/04/19 12:50:13;;;;;;;5.93;5.53;;;25.70;35.60;;;;;;4914933;29;20278;-74
2022/04/19 12:52:41;;;;;;;5.68;5.32;;;25.70;35.80;;;;;;4913186;29;20640;-75
2022/04/19 12:55:09;;;;;;;9.30;8.80;;;26.60;34.90;;;;;;4928752;29;20179;-75
2022/04/19 12:57:39;;;;;;;6.97;6.57;;;27.70;33.80;;;;;;4914150;29;20259;-75
2022/04/19 13:00:12;;;;;;;6.13;5.35;;;27.50;32.20;;;;;;4914773;29;20183;-75
2022/04/19 13:02:41;;;;;;;5.50;4.68;;;28.30;30.70;;;;;;4929383;29;20191;-75
2022/04/19 13:05:07;;;;;;;5.13;4.90;;;28.50;32.00;;;;;;4915129;29;20182;-75
2022/04/19 13:13:04;;;;;;;7.18;6.82;;;26.40;33.10;;;;;;4914512;29;20187;-75
2022/04/19 13:15:32;;;;;;;10.82;10.02;;;25.60;33.90;;;;;;4914473;29;20187;-75
2022/04/19 13:17:58;;;;;;;8.45;7.75;;;24.70;34.80;;;;;;4913927;29;20218;-75
2022/04/19 13:20:24;;;;;;;6.50;5.97;;;24.90;36.10;;;;;;4914458;29;20266;-75
2022/04/19 13:22:50;;;;;;;7.53;7.03;;;25.10;36.20;;;;;;4913401;29;20274;-76
2022/04/19 13:25:16;;;;;;;8.07;7.57;;;26.00;35.60;;;;;;4914586;29;20270;-77
2022/04/19 13:27:42;;;;;;;7.95;7.55;;;26.00;34.30;;;;;;4914224;29;20214;-76
2022/04/19 13:30:13;;;;;;;9.43;8.93;;;27.00;32.40;;;;;;4914549;29;20560;-75
2022/04/19 13:32:39;;;;;;;7.15;6.55;;;27.50;31.90;;;;;;4929060;29;20199;-75
2022/04/19 13:35:06;;;;;;;6.82;6.43;;;27.50;31.50;;;;;;4914437;29;20187;-75
2022/04/19 13:40:17;;;;;;;4.10;3.80;;;27.90;31.00;;;;;;4914525;29;20201;-72
2022/04/19 13:42:43;;;;;;;4.10;3.90;;;28.40;29.50;;;;;;4914543;29;20186;-73
2022/04/19 13:45:09;;;;;;;4.63;4.32;;;28.30;29.90;;;;;;4915832;29;20235;-74
2022/04/19 13:47:35;;;;;;;5.72;5.32;;;28.40;29.60;;;;;;4915147;29;20687;-74
2022/04/19 13:50:01;;;;;;;5.10;4.80;;;28.40;29.50;;;;;;4915059;29;20202;-73
2022/04/19 13:52:27;;;;;;;5.05;4.55;;;28.10;30.20;;;;;;4908805;29;20187;-73
2022/04/19 13:54:53;;;;;;;4.35;3.95;;;29.00;29.30;;;;;;4895132;29;20191;-75
2022/04/19 13:57:18;;;;;;;5.65;3.83;;;28.50;29.20;;;;;;4894702;29;20287;-74
2022/04/19 13:59:47;;;;;;;4.82;4.50;;;27.50;29.70;;;;;;4895294;29;20661;-74
2022/04/19 14:02:15;;;;;;;4.57;4.28;;;27.00;30.80;;;;;;4901477;29;20184;-73
2022/04/19 14:04:41;;;;;;;4.68;4.38;;;26.70;31.10;;;;;;4928697;29;20670;-74
2022/04/19 14:07:08;;;;;;;5.80;5.40;;;27.10;31.50;;;;;;4916517;29;20207;-73
2022/04/19 14:09:34;;;;;;;4.30;3.95;;;27.90;31.40;;;;;;4917138;29;20183;-73
2022/04/19 14:12:04;;;;;;;5.18;4.72;;;28.10;29.20;;;;;;4917952;29;20193;-73
2022/04/19 14:14:31;;;;;;;4.72;4.43;;;29.00;29.40;;;;;;4935483;29;20532;-74
2022/04/19 14:16:57;;;;;;;8.32;6.90;;;28.20;30.90;;;;;;4919937;29;20226;-72
2022/04/19 14:19:23;;;;;;;6.85;6.18;;;28.50;30.00;;;;;;4919318;29;20262;-74
2022/04/19 14:21:49;;;;;;;4.82;4.45;;;28.50;30.10;;;;;;4920239;29;21005;-74
2022/04/19 14:24:15;;;;;;;4.55;4.30;;;27.80;30.10;;;;;;4920048;29;20222;-74
2022/04/19 14:26:41;;;;;;;5.50;5.18;;;28.40;28.60;;;;;;4894133;29;20212;-73
2022/04/19 14:34:37;;;;;;;4.30;4.13;;;29.20;27.50;;;;;;4916490;29;20190;-74
2022/04/19 14:37:03;;;;;;;5.20;4.85;;;29.00;27.70;;;;;;4930409;29;20699;-73
2022/04/19 14:39:30;;;;;;;4.40;4.20;;;29.30;28.10;;;;;;4916623;29;20560;-74
2022/04/19 14:41:57;;;;;;;5.30;5.00;;;29.30;29.00;;;;;;4916207;29;20171;-71
2022/04/19 14:44:22;;;;;;;4.47;4.28;;;29.60;28.20;;;;;;4915137;29;20640;-74
2022/04/19 14:46:48;;;;;;;4.00;3.80;;;29.30;28.40;;;;;;4916253;29;20214;-75
2022/04/19 14:49:14;;;;;;;8.85;4.95;;;29.60;28.00;;;;;;4916496;29;20183;-74
2022/04/19 14:54:24;;;;;;;4.28;4.07;;;28.60;28.70;;;;;;4916614;29;20222;-75
2022/04/19 14:56:50;;;;;;;4.28;4.07;;;29.00;28.10;;;;;;4914042;29;20665;-76
2022/04/19 14:59:16;;;;;;;5.30;4.90;;;28.90;27.80;;;;;;4916463;29;20227;-74
2022/04/19 15:01:41;;;;;;;4.75;4.43;;;29.10;29.20;;;;;;4916740;29;20202;-74
2022/04/19 15:04:07;;;;;;;10.45;5.45;;;28.60;29.10;;;;;;4917729;29;20185;-76
2022/04/19 15:06:33;;;;;;;5.38;5.07;;;28.40;29.40;;;;;;4917994;29;20206;-75
2022/04/19 15:08:59;;;;;;;6.47;5.72;;;28.50;28.70;;;;;;4917276;29;20282;-76
2022/04/19 15:11:25;;;;;;;10.15;5.43;;;28.20;29.80;;;;;;4932365;29;20194;-75
2022/04/19 15:13:51;;;;;;;10.30;4.32;;;27.60;30.00;;;;;;4908723;29;20298;-76
2022/04/19 15:16:17;;;;;;;5.28;4.78;;;27.00;31.40;;;;;;4916000;29;20266;-76
2022/04/19 15:18:43;;;;;;;7.07;6.32;;;27.00;30.60;;;;;;4954863;23;20226;-76
2022/04/19 15:21:09;;;;;;;6.95;6.25;;;26.80;31.70;;;;;;4916883;29;20183;-78
2022/04/19 15:23:36;;;;;;;3.63;3.42;;;26.10;32.20;;;;;;4930824;29;20191;-77
2022/04/19 15:26:02;;;;;;;3.90;3.65;;;26.50;32.20;;;;;;4935931;29;20651;-77
2022/04/19 15:28:31;;;;;;;5.35;3.70;;;27.80;29.80;;;;;;4935337;29;20689;-76
2022/04/19 15:30:58;;;;;;;13.20;4.32;;;28.40;30.00;;;;;;4935081;29;20226;-76
2022/04/19 15:33:24;;;;;;;4.32;3.92;;;28.80;29.70;;;;;;4919354;29;20194;-76
2022/04/19 15:35:49;;;;;;;4.00;3.72;;;28.30;29.50;;;;;;4916187;29;20560;-76
2022/04/19 15:38:15;;;;;;;4.47;4.28;;;28.00;30.20;;;;;;4915183;29;20214;-77
2022/04/19 15:40:41;;;;;;;4.28;3.90;;;28.00;30.20;;;;;;4914669;29;20183;-77
2022/04/19 15:43:07;;;;;;;4.63;4.15;;;27.40;30.20;;;;;;4903593;29;20698;-77
2022/04/19 15:45:34;;;;;;;12.02;3.65;;;27.40;30.30;;;;;;4897250;29;20608;-78
2022/04/19 15:48:02;;;;;;;3.90;3.65;;;27.20;30.20;;;;;;4909736;29;20266;-77
2022/04/19 15:50:34;;;;;;;3.72;3.53;;;26.40;30.90;;;;;;4901692;29;20188;-78
2022/04/19 15:53:01;;;;;;;5.85;5.25;;;26.90;31.70;;;;;;4899281;29;20279;-76
2022/04/19 15:55:28;;;;;;;4.05;3.85;;;26.70;30.20;;;;;;4897520;29;20211;-74
2022/04/19 15:57:54;;;;;;;4.32;3.97;;;27.40;30.90;;;;;;4895690;29;20215;-75
2022/04/19 16:00:21;;;;;;;4.20;3.90;;;27.30;30.70;;;;;;4904349;29;20238;-77
2022/04/19 16:02:47;;;;;;;4.35;4.00;;;27.30;30.70;;;;;;4912828;29;20206;-75
2022/04/19 16:05:13;;;;;;;8.07;7.28;;;27.30;30.90;;;;;;4917743;29;20184;-74
2022/04/19 16:07:39;;;;;;;11.35;10.20;;;28.00;30.80;;;;;;4924272;29;20217;-74
2022/04/19 16:10:05;;;;;;;4.35;4.05;;;27.90;30.70;;;;;;4921201;29;20179;-75
2022/04/19 16:12:31;;;;;;;4.05;3.85;;;27.30;31.20;;;;;;4913510;29;20572;-74
2022/04/19 16:14:56;;;;;;;3.83;3.50;;;27.80;30.70;;;;;;4915293;29;20274;-74
2022/04/19 16:25:36;;;;;;;6.88;6.28;;;26.70;32.20;;;;;;4915049;29;20191;-74
2022/04/19 16:28:03;;;;;;;4.22;4.03;;;26.90;31.00;;;;;;4914649;29;20205;-75
2022/04/19 16:30:29;;;;;;;4.68;4.35;;;26.70;31.10;;;;;;4914443;29;20247;-75
2022/04/19 16:32:55;;;;;;;4.07;3.88;;;27.00;31.10;;;;;;4907273;29;20187;-74
2022/04/19 16:35:21;;;;;;;4.60;4.30;;;26.70;31.40;;;;;;4915283;29;20214;-74
2022/04/19 16:37:47;;;;;;;8.38;4.28;;;26.80;30.50;;;;;;4908412;29;20215;-74
2022/04/19 16:40:13;;;;;;;3.30;3.03;;;26.70;30.50;;;;;;4899735;29;20593;-74
2022/04/19 16:42:39;;;;;;;4.80;4.53;;;26.20;30.00;;;;;;4901835;29;20218;-76
2022/04/19 16:45:05;;;;;;;7.22;6.78;;;25.50;31.50;;;;;;4915469;29;20179;-76
2022/04/19 16:47:31;;;;;;;7.35;6.75;;;25.30;32.60;;;;;;4915450;29;20207;-75
2022/04/19 16:49:57;;;;;;;8.45;6.15;;;25.50;32.40;;;;;;4914975;29;20235;-74
2022/04/19 16:52:23;;;;;;;5.40;5.00;;;25.40;32.10;;;;;;4911517;29;20591;-74